createdAt,value
2022-12-11T00:00:43.023Z,100042.03
2022-12-11T00:03:30.566Z,100043.63
2022-12-11T00:06:20.396Z,100040.06
2022-12-11T00:09:07.508Z,100037.13
2022-12-11T00:11:57.079Z,100034.56
2022-12-11T00:14:44.199Z,100034.38
2022-12-11T00:17:30.784Z,100035.16
2022-12-11T00:20:18.402Z,100032.66
2022-12-11T00:23:07.287Z,100029.00
2022-12-11T00:25:54.334Z,100036.94
2022-12-11T00:28:41.235Z,100035.88
2022-12-11T00:31:28.617Z,100037.50
2022-12-11T00:34:15.576Z,100035.91
2022-12-11T00:37:02.982Z,100035.03
2022-12-11T00:39:51.051Z,100033.47
2022-12-11T00:42:38.198Z,100031.75
2022-12-11T00:45:25.048Z,100033.28
2022-12-11T00:48:13.081Z,100035.09
2022-12-11T00:51:00.534Z,100024.00
2022-12-11T00:53:47.730Z,100028.94
2022-12-11T00:56:35.848Z,100030.63
2022-12-11T00:59:23.154Z,100030.56
2022-12-11T01:02:11.384Z,100029.88
2022-12-11T01:04:58.801Z,100035.03
2022-12-11T01:07:45.512Z,100032.44
2022-12-11T01:10:33.402Z,100029.19
2022-12-11T01:13:21.594Z,100029.25
2022-12-11T01:16:09.966Z,100030.19
2022-12-11T01:18:58.465Z,100036.28
2022-12-11T01:21:45.693Z,100041.69
2022-12-11T01:24:32.444Z,100033.63
2022-12-11T01:27:19.297Z,100040.47
2022-12-11T01:30:09.931Z,100037.13
2022-12-11T01:32:56.826Z,100037.00
2022-12-11T01:35:43.847Z,100038.56
2022-12-11T01:38:31.297Z,100032.53
2022-12-11T01:41:19.391Z,100020.53
2022-12-11T01:44:08.861Z,100027.50
2022-12-11T01:46:57.108Z,100030.19
2022-12-11T01:49:44.579Z,100027.56
2022-12-11T01:52:31.492Z,100038.56
2022-12-11T01:55:19.938Z,100041.69
2022-12-11T01:58:08.178Z,100045.38
2022-12-11T02:00:56.972Z,100045.62
2022-12-11T02:03:45.741Z,100038.34
2022-12-11T02:06:35.858Z,100039.34
2022-12-11T02:09:25.274Z,100040.97
2022-12-11T02:12:18.891Z,100046.59
2022-12-11T02:15:14.186Z,100042.03
2022-12-11T02:18:15.461Z,100044.44
2022-12-11T02:21:10.866Z,100042.09
2022-12-11T02:24:20.456Z,100034.16
2022-12-11T02:27:25.729Z,100039.28
2022-12-11T02:30:17.243Z,100040.06
2022-12-11T02:33:04.383Z,100044.69
2022-12-11T02:35:51.994Z,100048.91
2022-12-11T02:38:42.734Z,100041.84
2022-12-11T02:41:30.828Z,100037.91
2022-12-11T02:44:22.429Z,100037.63
2022-12-11T02:47:15.966Z,100035.22
2022-12-11T02:50:05.029Z,100029.84
2022-12-11T02:52:55.815Z,100039.19
2022-12-11T02:55:46.314Z,100034.59
2022-12-11T02:58:35.421Z,100028.78
2022-12-11T03:01:22.416Z,100035.56
2022-12-11T03:04:11.237Z,100039.97
2022-12-11T03:07:11.984Z,100042.50
2022-12-11T03:09:59.566Z,100036.44
2022-12-11T03:12:53.661Z,100033.81
2022-12-11T03:15:48.923Z,100039.91
2022-12-11T03:18:40.614Z,100037.28
2022-12-11T03:21:36.199Z,100039.06
2022-12-11T03:24:30.702Z,100028.56
2022-12-11T03:27:24.181Z,100032.91
2022-12-11T03:30:15.480Z,100029.31
2022-12-11T03:33:06.817Z,100023.16
2022-12-11T03:35:57.194Z,100023.41
2022-12-11T03:38:51.414Z,100019.00
2022-12-11T03:41:40.963Z,100018.03
2022-12-11T03:44:29.999Z,100023.28
2022-12-11T03:47:20.945Z,100025.25
2022-12-11T03:50:12.739Z,100022.75
2022-12-11T03:53:01.756Z,100018.56
2022-12-11T03:55:52.010Z,100025.19
2022-12-11T03:58:39.597Z,100012.53
2022-12-11T04:01:26.662Z,100020.44
2022-12-11T04:04:14.266Z,100024.03
2022-12-11T04:07:01.418Z,100016.06
2022-12-11T04:09:49.133Z,100021.13
2022-12-11T04:12:37.176Z,100028.03
2022-12-11T04:15:23.720Z,100021.88
2022-12-11T04:18:29.295Z,100020.91
2022-12-11T04:21:39.247Z,100024.50
2022-12-11T04:24:26.767Z,100024.75
2022-12-11T04:27:14.041Z,100021.34
2022-12-11T04:30:02.380Z,100025.91
2022-12-11T04:32:50.478Z,100023.06
2022-12-11T04:35:37.453Z,100018.88
2022-12-11T04:38:24.663Z,100020.56
2022-12-11T04:41:13.618Z,100024.16
2022-12-11T04:44:01.045Z,100022.72
2022-12-11T04:46:49.306Z,100016.37
2022-12-11T04:49:36.488Z,100015.41
2022-12-11T04:52:23.897Z,100018.00
2022-12-11T04:55:12.109Z,100017.38
2022-12-11T04:57:59.057Z,100015.69
2022-12-11T05:00:46.818Z,100008.72
2022-12-11T05:03:35.243Z,100013.16
2022-12-11T05:06:22.480Z,100018.31
2022-12-11T05:09:12.409Z,100018.31
2022-12-11T05:11:59.711Z,100006.87
2022-12-11T05:14:47.017Z,100012.25
2022-12-11T05:17:34.869Z,100010.28
2022-12-11T05:20:23.228Z,100010.34
2022-12-11T05:23:10.454Z,100003.00
2022-12-11T05:25:59.059Z,100001.28
2022-12-11T05:28:47.193Z,99997.94
2022-12-11T05:31:34.218Z,99994.59
2022-12-11T05:34:21.202Z,100008.38
2022-12-11T05:37:10.219Z,100002.19
2022-12-11T05:39:57.365Z,99999.28
2022-12-11T05:42:44.116Z,99996.06
2022-12-11T05:45:31.390Z,99995.00
2022-12-11T05:48:18.248Z,99991.69
2022-12-11T05:51:06.431Z,99987.25
2022-12-11T05:53:56.397Z,99986.69
2022-12-11T05:56:43.666Z,99980.59
2022-12-11T05:59:30.726Z,99970.66
2022-12-11T06:02:18.182Z,99982.12
2022-12-11T06:05:05.673Z,99976.16
2022-12-11T06:07:52.585Z,99979.56
2022-12-11T06:10:46.805Z,99982.91
2022-12-11T06:13:34.377Z,99981.00
2022-12-11T06:16:22.282Z,99984.22
2022-12-11T06:19:14.948Z,99985.03
2022-12-11T06:22:02.030Z,99981.50
2022-12-11T06:24:49.047Z,99989.28
2022-12-11T06:27:38.106Z,99986.00
2022-12-11T06:30:39.215Z,99985.16
2022-12-11T06:33:26.567Z,99992.03
2022-12-11T06:36:15.727Z,99990.19
2022-12-11T06:39:02.941Z,99979.63
2022-12-11T06:41:49.620Z,99984.78
2022-12-11T06:44:38.006Z,99982.25
2022-12-11T06:47:25.014Z,99976.38
2022-12-11T06:50:12.585Z,99976.25
2022-12-11T06:52:59.518Z,99975.41
2022-12-11T06:55:46.982Z,99973.47
2022-12-11T06:58:35.940Z,99986.06
2022-12-11T07:01:27.104Z,99993.72
2022-12-11T07:04:14.104Z,99989.41
2022-12-11T07:07:01.446Z,99995.44
2022-12-11T07:09:48.536Z,99987.47
2022-12-11T07:12:35.558Z,99997.84
2022-12-11T07:15:22.519Z,99992.56
2022-12-11T07:18:11.168Z,99994.22
2022-12-11T07:21:00.069Z,99997.75
2022-12-11T07:23:47.890Z,99993.31
2022-12-11T07:26:34.847Z,100003.66
2022-12-11T07:29:21.969Z,100005.34
2022-12-11T07:32:09.226Z,100007.94
2022-12-11T07:34:57.663Z,100002.06
2022-12-11T07:37:45.994Z,100012.28
2022-12-11T07:40:34.935Z,100015.62
2022-12-11T07:43:23.381Z,100017.28
2022-12-11T07:46:15.416Z,100018.03
2022-12-11T07:49:03.096Z,100017.06
2022-12-11T07:51:51.973Z,100019.75
2022-12-11T07:54:38.896Z,100017.94
2022-12-11T07:57:26.276Z,100017.78
2022-12-11T08:00:14.174Z,100004.56
2022-12-11T08:03:01.515Z,100007.13
2022-12-11T08:05:50.071Z,100008.91
2022-12-11T08:08:39.034Z,100009.03
2022-12-11T08:11:27.052Z,100015.97
2022-12-11T08:14:16.238Z,100014.34
2022-12-11T08:17:03.527Z,100010.78
2022-12-11T08:19:50.972Z,100016.87
2022-12-11T08:22:37.741Z,100014.19
2022-12-11T08:25:27.114Z,100009.87
2022-12-11T08:28:14.056Z,100004.50
2022-12-11T08:31:04.583Z,100008.09
2022-12-11T08:33:51.924Z,100007.56
2022-12-11T08:36:39.185Z,100011.66
2022-12-11T08:39:26.886Z,100001.78
2022-12-11T08:42:15.374Z,100012.16
2022-12-11T08:45:02.831Z,100005.94
2022-12-11T08:47:50.263Z,100006.59
2022-12-11T08:50:38.381Z,100007.06
2022-12-11T08:53:25.639Z,100003.19
2022-12-11T08:56:14.749Z,100001.56
2022-12-11T08:59:04.190Z,100008.97
2022-12-11T09:01:51.024Z,100006.25
2022-12-11T09:04:38.217Z,100011.03
2022-12-11T09:07:25.449Z,100006.81
2022-12-11T09:10:12.907Z,100021.78
2022-12-11T09:13:00.163Z,100011.22
2022-12-11T09:15:49.133Z,100019.69
2022-12-11T09:18:35.941Z,100017.97
2022-12-11T09:21:24.944Z,100018.53
2022-12-11T09:24:13.649Z,100018.66
2022-12-11T09:27:01.271Z,100022.25
2022-12-11T09:29:48.187Z,100021.72
2022-12-11T09:32:36.646Z,100014.44
2022-12-11T09:35:23.719Z,100022.09
2022-12-11T09:38:10.736Z,100015.22
2022-12-11T09:40:57.370Z,100016.34
2022-12-11T09:43:48.187Z,100010.84
2022-12-11T09:46:39.260Z,100010.97
2022-12-11T09:49:36.326Z,100017.47
2022-12-11T09:52:29.818Z,100025.78
2022-12-11T09:55:20.522Z,100017.00
2022-12-11T09:58:15.017Z,100016.44
2022-12-11T10:01:07.201Z,100024.78
2022-12-11T10:04:12.077Z,100017.53
2022-12-11T10:07:10.218Z,100008.06
2022-12-11T10:10:08.740Z,100001.31
2022-12-11T10:13:03.790Z,99994.53
2022-12-11T10:15:55.954Z,99994.53
2022-12-11T10:18:43.576Z,99994.72
2022-12-11T10:21:40.849Z,99991.69
2022-12-11T10:25:09.558Z,99986.72
2022-12-11T10:27:45.160Z,99979.63
2022-12-11T10:30:38.654Z,99977.81
2022-12-11T10:33:35.680Z,99980.19
2022-12-11T10:36:29.542Z,99988.06
2022-12-11T10:39:20.036Z,99977.28
2022-12-11T10:42:17.706Z,99978.31
2022-12-11T10:45:07.356Z,99974.28
2022-12-11T10:48:04.941Z,99976.91
2022-12-11T10:51:01.535Z,99978.41
2022-12-11T10:53:52.016Z,99975.22
2022-12-11T10:56:39.514Z,99975.94
2022-12-11T10:59:35.011Z,99972.22
2022-12-11T11:02:26.298Z,99974.56
2022-12-11T11:05:17.036Z,99980.50
2022-12-11T11:08:15.105Z,99970.91
2022-12-11T11:11:03.028Z,99969.38
2022-12-11T11:13:50.881Z,99961.63
2022-12-11T11:16:41.338Z,99949.88
2022-12-11T11:19:32.664Z,99948.31
2022-12-11T11:22:22.323Z,99952.94
2022-12-11T11:25:19.577Z,99946.06
2022-12-11T11:28:09.462Z,99950.84
2022-12-11T11:31:03.750Z,99934.84
2022-12-11T11:33:57.420Z,99942.44
2022-12-11T11:36:44.561Z,99940.03
2022-12-11T11:39:39.153Z,99933.78
2022-12-11T11:42:36.965Z,99930.44
2022-12-11T11:45:28.040Z,99929.69
2022-12-11T11:48:29.636Z,99926.91
2022-12-11T11:51:24.308Z,99932.09
2022-12-11T11:54:25.861Z,99929.53
2022-12-11T11:57:16.967Z,99917.69
2022-12-11T12:00:11.568Z,99921.56
2022-12-11T12:03:01.849Z,99929.69
2022-12-11T12:05:56.582Z,99924.28
2022-12-11T12:08:55.725Z,99926.13
2022-12-11T12:11:50.702Z,99931.03
2022-12-11T12:14:53.884Z,99928.72
2022-12-11T12:18:12.564Z,99926.72
2022-12-11T12:21:10.672Z,99924.50
2022-12-11T12:24:13.396Z,99913.03
2022-12-11T12:27:17.598Z,99922.09
2022-12-11T12:30:22.444Z,99919.41
2022-12-11T12:33:23.099Z,99911.09
2022-12-11T12:36:19.098Z,99913.78
2022-12-11T12:39:19.319Z,99914.66
2022-12-11T12:42:14.423Z,99909.37
2022-12-11T12:45:17.238Z,99907.25
2022-12-11T12:48:04.481Z,99903.41
2022-12-11T12:50:52.417Z,99897.75
2022-12-11T12:53:40.763Z,99895.06
2022-12-11T12:56:31.959Z,99898.88
2022-12-11T12:59:23.573Z,99895.06
2022-12-11T13:02:18.050Z,99889.91
2022-12-11T13:05:20.485Z,99894.47
2022-12-11T13:08:07.732Z,99893.69
2022-12-11T13:11:02.255Z,99883.81
2022-12-11T13:14:03.861Z,99883.12
2022-12-11T13:16:52.777Z,99880.00
2022-12-11T13:19:42.695Z,99876.00
2022-12-11T13:22:30.092Z,99871.84
2022-12-11T13:25:24.174Z,99876.31
2022-12-11T13:28:24.699Z,99870.41
2022-12-11T13:31:36.221Z,99881.91
2022-12-11T13:34:25.097Z,99886.91
2022-12-11T13:37:25.734Z,99892.47
2022-12-11T13:40:20.517Z,99880.75
2022-12-11T13:43:16.665Z,99890.84
2022-12-11T13:46:06.651Z,99891.72
2022-12-11T13:49:00.727Z,99889.94
2022-12-11T13:51:53.831Z,99891.78
2022-12-11T13:54:49.181Z,99895.16
2022-12-11T13:57:46.891Z,99889.25
2022-12-11T14:00:34.188Z,99894.56
2022-12-11T14:03:21.403Z,99889.31
2022-12-11T14:06:18.578Z,99898.25
2022-12-11T14:09:08.191Z,99900.22
2022-12-11T14:11:59.204Z,99893.06
2022-12-11T14:14:51.652Z,99892.19
2022-12-11T14:17:38.408Z,99902.34
2022-12-11T14:20:28.235Z,99897.78
2022-12-11T14:23:20.715Z,99895.91
2022-12-11T14:26:18.685Z,99899.94
2022-12-11T14:29:05.787Z,99896.47
2022-12-11T14:31:53.469Z,99893.56
2022-12-11T14:34:44.333Z,99896.13
2022-12-11T14:37:32.567Z,99904.91
2022-12-11T14:40:25.960Z,99904.28
2022-12-11T14:43:16.511Z,99899.91
2022-12-11T14:46:10.446Z,99898.56
2022-12-11T14:49:02.828Z,99895.28
2022-12-11T14:51:51.295Z,99902.37
2022-12-11T14:54:50.226Z,99898.69
2022-12-11T14:57:44.137Z,99896.00
2022-12-11T15:00:33.572Z,99900.25
2022-12-11T15:03:26.067Z,99893.25
2022-12-11T15:06:26.598Z,99891.47
2022-12-11T15:09:27.854Z,99898.50
2022-12-11T15:12:17.609Z,99899.31
2022-12-11T15:15:08.136Z,99897.19
2022-12-11T15:17:56.025Z,99899.00
2022-12-11T15:20:43.199Z,99905.66
2022-12-11T15:23:31.086Z,99909.84
2022-12-11T15:26:18.342Z,99908.09
2022-12-11T15:29:08.133Z,99907.25
2022-12-11T15:32:05.297Z,99909.78
2022-12-11T15:34:59.000Z,99916.00
2022-12-11T15:37:53.734Z,99925.56
2022-12-11T15:40:40.835Z,99926.63
2022-12-11T15:43:28.685Z,99918.00
2022-12-11T15:46:16.008Z,99918.19
2022-12-11T15:49:12.420Z,99917.25
2022-12-11T15:51:59.835Z,99918.31
2022-12-11T15:54:46.829Z,99922.44
2022-12-11T15:57:34.258Z,99925.75
2022-12-11T16:00:22.289Z,99919.59
2022-12-11T16:03:12.672Z,99920.84
2022-12-11T16:06:00.773Z,99917.25
2022-12-11T16:08:48.091Z,99915.69
2022-12-11T16:11:34.760Z,99920.59
2022-12-11T16:14:24.402Z,99920.03
2022-12-11T16:17:12.741Z,99928.72
2022-12-11T16:19:59.995Z,99926.88
2022-12-11T16:22:48.296Z,99927.88
2022-12-11T16:25:37.553Z,99921.62
2022-12-11T16:28:24.650Z,99924.59
2022-12-11T16:31:13.223Z,99927.94
2022-12-11T16:34:00.249Z,99931.25
2022-12-11T16:36:47.610Z,99932.91
2022-12-11T16:39:37.912Z,99933.81
2022-12-11T16:42:25.331Z,99934.50
2022-12-11T16:45:15.901Z,99933.81
2022-12-11T16:48:05.372Z,99931.41
2022-12-11T16:50:54.533Z,99926.97
2022-12-11T16:53:42.008Z,99925.31
2022-12-11T16:56:30.713Z,99927.88
2022-12-11T16:59:17.965Z,99923.72
2022-12-11T17:02:05.037Z,99922.22
2022-12-11T17:04:54.140Z,99916.75
2022-12-11T17:07:41.407Z,99922.97
2022-12-11T17:10:28.527Z,99917.97
2022-12-11T17:13:16.581Z,99919.88
2022-12-11T17:16:06.528Z,99920.59
2022-12-11T17:18:54.005Z,99916.47
2022-12-11T17:21:41.161Z,99916.66
2022-12-11T17:24:28.252Z,99928.84
2022-12-11T17:27:15.465Z,99917.19
2022-12-11T17:30:04.429Z,99916.53
2022-12-11T17:32:51.462Z,99920.06
2022-12-11T17:35:38.458Z,99917.00
2022-12-11T17:38:25.775Z,99916.25
2022-12-11T17:41:20.028Z,99915.34
2022-12-11T17:44:07.681Z,99912.94
2022-12-11T17:46:55.820Z,99914.38
2022-12-11T17:49:43.142Z,99916.03
2022-12-11T17:52:34.108Z,99924.91
2022-12-11T17:55:22.691Z,99929.12
2022-12-11T17:58:09.626Z,99928.62
2022-12-11T18:00:58.161Z,99921.75
2022-12-11T18:03:47.091Z,99923.19
2022-12-11T18:06:34.496Z,99928.84
2022-12-11T18:09:22.300Z,99935.47
2022-12-11T18:12:09.952Z,99934.78
2022-12-11T18:15:00.436Z,99932.69
2022-12-11T18:17:48.549Z,99929.22
2022-12-11T18:20:38.434Z,99937.19
2022-12-11T18:23:25.569Z,99930.34
2022-12-11T18:26:14.755Z,99935.16
2022-12-11T18:29:01.359Z,99936.59
2022-12-11T18:31:49.302Z,99936.44
2022-12-11T18:34:36.635Z,99934.78
2022-12-11T18:37:28.083Z,99932.03
2022-12-11T18:40:15.380Z,99933.75
2022-12-11T18:43:02.884Z,99936.22
2022-12-11T18:45:51.809Z,99938.19
2022-12-11T18:48:39.757Z,99939.59
2022-12-11T18:51:26.795Z,99937.72
2022-12-11T18:54:15.661Z,99937.72
2022-12-11T18:57:02.545Z,99930.78
2022-12-11T18:59:52.220Z,99926.34
2022-12-11T19:02:39.818Z,99934.78
2022-12-11T19:05:27.038Z,99926.03
2022-12-11T19:08:16.215Z,99926.72
2022-12-11T19:11:05.543Z,99927.53
2022-12-11T19:13:53.553Z,99925.63
2022-12-11T19:16:44.519Z,99922.75
2022-12-11T19:19:31.603Z,99921.75
2022-12-11T19:22:18.926Z,99929.59
2022-12-11T19:25:07.152Z,99934.03
2022-12-11T19:27:57.023Z,99927.78
2022-12-11T19:30:44.365Z,99933.81
2022-12-11T19:33:31.793Z,99931.03
2022-12-11T19:36:23.279Z,99933.44
2022-12-11T19:39:13.309Z,99934.06
2022-12-11T19:42:00.512Z,99935.88
2022-12-11T19:44:48.935Z,99938.19
2022-12-11T19:47:36.000Z,99932.66
2022-12-11T19:50:23.314Z,99931.75
2022-12-11T19:53:09.914Z,99931.56
2022-12-11T19:55:56.830Z,99929.88
2022-12-11T19:58:43.944Z,99931.28
2022-12-11T20:01:36.250Z,99930.13
2022-12-11T20:04:23.842Z,99932.53
2022-12-11T20:07:10.626Z,99926.44
2022-12-11T20:10:00.181Z,99925.84
2022-12-11T20:12:47.305Z,99927.25
2022-12-11T20:15:34.630Z,99933.37
2022-12-11T20:18:22.926Z,99927.31
2022-12-11T20:21:13.604Z,99930.06
2022-12-11T20:24:01.259Z,99926.44
2022-12-11T20:26:48.120Z,99929.31
2022-12-11T20:29:34.773Z,99928.41
2022-12-11T20:32:22.055Z,99934.00
2022-12-11T20:35:11.612Z,99930.78
2022-12-11T20:37:59.171Z,99933.66
2022-12-11T20:40:47.189Z,99925.28
2022-12-11T20:43:34.429Z,99920.06
2022-12-11T20:46:24.915Z,99920.56
2022-12-11T20:49:13.098Z,99917.37
2022-12-11T20:52:01.403Z,99913.09
2022-12-11T20:54:48.403Z,99918.94
2022-12-11T20:57:35.154Z,99913.16
2022-12-11T21:00:22.630Z,99913.19
2022-12-11T21:03:09.276Z,99904.16
2022-12-11T21:05:56.625Z,99912.16
2022-12-11T21:08:44.638Z,99917.03
2022-12-11T21:11:31.856Z,99908.38
2022-12-11T21:14:19.923Z,99912.91
2022-12-11T21:17:07.319Z,99907.72
2022-12-11T21:19:54.432Z,99905.34
2022-12-11T21:22:41.929Z,99903.53
2022-12-11T21:25:30.301Z,99907.19
2022-12-11T21:28:17.796Z,99907.50
2022-12-11T21:31:06.451Z,99908.97
2022-12-11T21:33:53.537Z,99908.97
2022-12-11T21:36:40.035Z,99912.41
2022-12-11T21:39:29.292Z,99912.44
2022-12-11T21:42:17.839Z,99921.06
2022-12-11T21:48:14.065Z,99913.56
2022-12-11T21:51:07.626Z,99916.81
2022-12-11T21:53:55.075Z,99913.09
2022-12-11T21:56:42.778Z,99911.19
2022-12-11T21:59:31.141Z,99914.78
2022-12-11T22:02:18.501Z,99913.75
2022-12-11T22:05:06.696Z,99915.03
2022-12-11T22:07:53.966Z,99915.56
2022-12-11T22:10:41.178Z,99911.56
2022-12-11T22:13:28.429Z,99914.12
2022-12-11T22:16:17.171Z,99914.06
2022-12-11T22:19:04.063Z,99918.13
2022-12-11T22:21:51.499Z,99913.00
2022-12-11T22:24:38.398Z,99904.03
2022-12-11T22:27:25.719Z,99906.69
2022-12-11T22:30:14.761Z,99895.63
2022-12-11T22:33:03.211Z,99894.44
2022-12-11T22:35:56.406Z,99897.34
2022-12-11T22:38:43.560Z,99897.62
2022-12-11T22:41:38.283Z,99892.25
2022-12-11T22:44:25.803Z,99896.00
2022-12-11T22:47:12.368Z,99892.06
2022-12-11T22:50:00.568Z,99892.72
2022-12-11T22:52:47.433Z,99890.66
2022-12-11T22:55:34.713Z,99888.41
2022-12-11T22:58:22.167Z,99894.09
2022-12-11T23:01:11.937Z,99889.56
2022-12-11T23:03:58.726Z,99895.94
2022-12-11T23:06:47.672Z,99893.25
2022-12-11T23:09:35.555Z,99898.38
2022-12-11T23:12:24.478Z,99896.84
2022-12-11T23:15:11.972Z,99905.06
2022-12-11T23:17:59.425Z,99897.66
2022-12-11T23:20:46.367Z,99903.44
2022-12-11T23:23:34.516Z,99912.00
2022-12-11T23:26:21.873Z,99901.47
2022-12-11T23:29:09.352Z,99907.25
2022-12-11T23:31:55.778Z,99907.06
2022-12-11T23:34:42.765Z,99906.47
2022-12-11T23:37:29.693Z,99907.38
2022-12-11T23:40:21.101Z,99909.19
2022-12-11T23:43:07.798Z,99909.06
2022-12-11T23:45:55.365Z,99910.25
2022-12-11T23:48:42.711Z,99914.50
2022-12-11T23:51:32.730Z,99915.59
2022-12-11T23:54:19.442Z,99919.53
2022-12-11T23:57:08.085Z,99922.00
2022-12-11T23:59:57.632Z,99920.88
